Sparta, NC

7:57 AM EDT on July 24, 2017 (GMT -0400)
Grandview | | Change Station

Elev 2900 ft 36.50 °N, 81.12 °W | Updated 37 seconds ago

Overcast
Overcast
65.6 °F
Feels Like 65.6 °F
N
11.0
Wind Variable Wind from NE

Today
High -- | Low -- °F
--% Chance of Precip.
Yesterday
High -- | Low -- °F
Precip. -- in
Pressure 30.04 in
Visibility 10.0 miles
Clouds Overcast 1600 ft
Dew Point 65 °F
Humidity 98%
Rainfall 0.76 in
Snow Depth Not available.
6:24 AM 8:36 PM
New Moon, 2% visible
METAR KGEV 241150Z AUTO 32005G14KT 10SM OVC016 19/16 A3004 RMK AO2 60012 70058 T01900162 10200 20181
Pressure 30.04 in
Visibility 10.0 miles
Clouds Overcast 1600 ft
Dew Point 65 °F
Humidity 98%
Rainfall 0.76 in
Snow Depth Not available.
6:24 AM 8:36 PM
New Moon, 2% visible
METAR KGEV 241150Z AUTO 32005G14KT 10SM OVC016 19/16 A3004 RMK AO2 60012 70058 T01900162 10200 20181

Get Severe Weather Alerts

Thanks for signing up!

Be on the lookout for a verification email in your inbox.

You'll start receiving the daily forecast at 6 AM.

×

10-Day Weather Forecast

Almanac

Astronomy

Jul. 24, 2017 Rise Set
Actual Time
Civil Twilight
Nautical Twilight
Astronomical Twilight
Moon
Length of Visible Light
Length of Day
Tomorrow will be .
, % of the Moon is Illuminated

Today's Extremes

State Highs State Lows

Community

WunderPhotos

Category 6

Welcome to Category 6. This is the collective home for Weather Underground's featured writeups by Dr. Jeff Masters (right), Bob Henson (left), Chris Burt, and other regular contributors.

Nearby

Air Quality

  Air Quality AQ Index Pollutant
Not available.

Snow Depth

Station Depth Elevation

Earthquake Activity

City Distance Mag. Time & Date
Minimum magnitude displayed is 2.5.

Coastal Water Temperatures

Place Temperature

Stations

Nearby Weather Stations

Station Location Temp. Windchill Dew Point Humidity Wind Precip. Elev Updated Type
                   

Watches & Warnings

There are currently no watches in effect.